sensor_id;sensor_type;location;lat;lon;timestamp;P1;durP1;ratioP1;P2;durP2;ratioP2
22963;SDS011;11648;49.306;6.934;2023-03-15T00:01:52;3.57;;;1.97;;
22963;SDS011;11648;49.306;6.934;2023-03-15T00:04:19;7.37;;;2.10;;
22963;SDS011;11648;49.306;6.934;2023-03-15T00:06:46;6.30;;;2.03;;
22963;SDS011;11648;49.306;6.934;2023-03-15T00:09:13;5.70;;;1.87;;
22963;SDS011;11648;49.306;6.934;2023-03-15T00:11:39;4.47;;;2.20;;
22963;SDS011;11648;49.306;6.934;2023-03-15T00:14:06;4.00;;;2.10;;
22963;SDS011;11648;49.306;6.934;2023-03-15T00:16:33;4.90;;;2.33;;
22963;SDS011;11648;49.306;6.934;2023-03-15T00:19:00;4.50;;;2.13;;
22963;SDS011;11648;49.306;6.934;2023-03-15T00:21:27;4.93;;;2.67;;
22963;SDS011;11648;49.306;6.934;2023-03-15T00:23:55;5.20;;;2.30;;
22963;SDS011;11648;49.306;6.934;2023-03-15T00:26:22;6.00;;;2.80;;
22963;SDS011;11648;49.306;6.934;2023-03-15T00:28:49;4.60;;;2.00;;
22963;SDS011;11648;49.306;6.934;2023-03-15T00:31:23;4.00;;;2.10;;
22963;SDS011;11648;49.306;6.934;2023-03-15T00:33:51;7.03;;;2.60;;
22963;SDS011;11648;49.306;6.934;2023-03-15T00:36:22;6.47;;;2.33;;
22963;SDS011;11648;49.306;6.934;2023-03-15T00:38:51;7.73;;;2.93;;
22963;SDS011;11648;49.306;6.934;2023-03-15T00:41:20;8.93;;;2.70;;
22963;SDS011;11648;49.306;6.934;2023-03-15T00:43:48;7.03;;;2.87;;
22963;SDS011;11648;49.306;6.934;2023-03-15T00:46:16;7.27;;;3.07;;
22963;SDS011;11648;49.306;6.934;2023-03-15T00:48:46;5.17;;;2.90;;
22963;SDS011;11648;49.306;6.934;2023-03-15T00:51:15;6.50;;;2.83;;
22963;SDS011;11648;49.306;6.934;2023-03-15T00:53:44;7.77;;;3.10;;
22963;SDS011;11648;49.306;6.934;2023-03-15T00:56:13;5.53;;;2.93;;
22963;SDS011;11648;49.306;6.934;2023-03-15T00:58:42;7.97;;;2.90;;
22963;SDS011;11648;49.306;6.934;2023-03-15T01:01:16;6.40;;;3.00;;
22963;SDS011;11648;49.306;6.934;2023-03-15T01:03:48;6.30;;;2.93;;
22963;SDS011;11648;49.306;6.934;2023-03-15T01:06:17;8.87;;;3.53;;
22963;SDS011;11648;49.306;6.934;2023-03-15T01:08:48;6.80;;;3.30;;
22963;SDS011;11648;49.306;6.934;2023-03-15T01:11:20;7.60;;;3.93;;
22963;SDS011;11648;49.306;6.934;2023-03-15T01:13:50;6.30;;;3.50;;
22963;SDS011;11648;49.306;6.934;2023-03-15T01:16:18;10.70;;;4.07;;
22963;SDS011;11648;49.306;6.934;2023-03-15T01:18:45;6.97;;;3.47;;
22963;SDS011;11648;49.306;6.934;2023-03-15T01:21:12;7.63;;;3.60;;
22963;SDS011;11648;49.306;6.934;2023-03-15T01:23:44;7.37;;;3.80;;
22963;SDS011;11648;49.306;6.934;2023-03-15T01:26:11;6.63;;;3.60;;
22963;SDS011;11648;49.306;6.934;2023-03-15T01:28:40;9.87;;;3.70;;
22963;SDS011;11648;49.306;6.934;2023-03-15T01:31:09;11.50;;;3.50;;
22963;SDS011;11648;49.306;6.934;2023-03-15T01:33:43;8.30;;;3.57;;
22963;SDS011;11648;49.306;6.934;2023-03-15T01:36:11;10.37;;;3.97;;
22963;SDS011;11648;49.306;6.934;2023-03-15T01:38:38;9.60;;;3.70;;
22963;SDS011;11648;49.306;6.934;2023-03-15T01:41:05;9.27;;;3.40;;
22963;SDS011;11648;49.306;6.934;2023-03-15T01:43:33;10.73;;;3.93;;
22963;SDS011;11648;49.306;6.934;2023-03-15T01:48:31;8.73;;;3.40;;
22963;SDS011;11648;49.306;6.934;2023-03-15T01:51:07;7.87;;;3.83;;
22963;SDS011;11648;49.306;6.934;2023-03-15T01:53:42;7.50;;;3.80;;
22963;SDS011;11648;49.306;6.934;2023-03-15T01:56:14;8.50;;;3.37;;
22963;SDS011;11648;49.306;6.934;2023-03-15T01:58:41;6.93;;;3.60;;
22963;SDS011;11648;49.306;6.934;2023-03-15T02:01:11;9.17;;;3.63;;
22963;SDS011;11648;49.306;6.934;2023-03-15T02:03:44;8.50;;;3.50;;
22963;SDS011;11648;49.306;6.934;2023-03-15T02:06:18;6.83;;;3.23;;
22963;SDS011;11648;49.306;6.934;2023-03-15T02:08:52;9.57;;;3.60;;
22963;SDS011;11648;49.306;6.934;2023-03-15T02:11:24;10.80;;;3.37;;
22963;SDS011;11648;49.306;6.934;2023-03-15T02:13:53;7.23;;;3.30;;
22963;SDS011;11648;49.306;6.934;2023-03-15T02:16:22;11.87;;;3.60;;
22963;SDS011;11648;49.306;6.934;2023-03-15T02:18:56;8.30;;;3.17;;
22963;SDS011;11648;49.306;6.934;2023-03-15T02:26:54;9.83;;;3.33;;
22963;SDS011;11648;49.306;6.934;2023-03-15T02:29:24;11.97;;;3.67;;
22963;SDS011;11648;49.306;6.934;2023-03-15T02:31:53;11.30;;;3.47;;
22963;SDS011;11648;49.306;6.934;2023-03-15T02:34:24;10.87;;;3.80;;
22963;SDS011;11648;49.306;6.934;2023-03-15T02:36:51;9.17;;;3.30;;
22963;SDS011;11648;49.306;6.934;2023-03-15T02:39:20;8.60;;;3.57;;
22963;SDS011;11648;49.306;6.934;2023-03-15T02:41:48;12.47;;;3.60;;
22963;SDS011;11648;49.306;6.934;2023-03-15T02:46:52;10.47;;;3.20;;
22963;SDS011;11648;49.306;6.934;2023-03-15T02:49:23;15.00;;;3.47;;
22963;SDS011;11648;49.306;6.934;2023-03-15T02:51:55;7.97;;;3.43;;
22963;SDS011;11648;49.306;6.934;2023-03-15T02:54:22;8.37;;;3.73;;
22963;SDS011;11648;49.306;6.934;2023-03-15T02:56:50;10.37;;;3.30;;
22963;SDS011;11648;49.306;6.934;2023-03-15T02:59:17;8.13;;;2.90;;
22963;SDS011;11648;49.306;6.934;2023-03-15T03:01:44;7.90;;;3.10;;
22963;SDS011;11648;49.306;6.934;2023-03-15T03:04:11;13.83;;;3.37;;
22963;SDS011;11648;49.306;6.934;2023-03-15T03:06:38;8.10;;;3.23;;
22963;SDS011;11648;49.306;6.934;2023-03-15T03:09:05;7.63;;;3.03;;
22963;SDS011;11648;49.306;6.934;2023-03-15T03:11:32;10.33;;;3.17;;
22963;SDS011;11648;49.306;6.934;2023-03-15T03:13:59;13.37;;;3.60;;
22963;SDS011;11648;49.306;6.934;2023-03-15T03:16:26;11.27;;;3.80;;
22963;SDS011;11648;49.306;6.934;2023-03-15T03:18:53;9.27;;;3.30;;
22963;SDS011;11648;49.306;6.934;2023-03-15T03:21:20;10.90;;;3.40;;
22963;SDS011;11648;49.306;6.934;2023-03-15T03:23:48;8.93;;;3.37;;
22963;SDS011;11648;49.306;6.934;2023-03-15T03:26:16;11.80;;;3.93;;
22963;SDS011;11648;49.306;6.934;2023-03-15T03:28:46;13.17;;;3.97;;
22963;SDS011;11648;49.306;6.934;2023-03-15T03:31:23;10.60;;;3.73;;
22963;SDS011;11648;49.306;6.934;2023-03-15T03:33:54;11.00;;;4.70;;
22963;SDS011;11648;49.306;6.934;2023-03-15T03:36:22;11.53;;;4.47;;
22963;SDS011;11648;49.306;6.934;2023-03-15T03:38:50;10.70;;;4.03;;
22963;SDS011;11648;49.306;6.934;2023-03-15T03:41:19;11.30;;;4.00;;
22963;SDS011;11648;49.306;6.934;2023-03-15T03:43:46;10.23;;;4.53;;
22963;SDS011;11648;49.306;6.934;2023-03-15T03:46:13;8.57;;;3.93;;
22963;SDS011;11648;49.306;6.934;2023-03-15T03:48:45;9.40;;;3.90;;
22963;SDS011;11648;49.306;6.934;2023-03-15T03:51:12;10.77;;;4.03;;
22963;SDS011;11648;49.306;6.934;2023-03-15T03:53:38;13.27;;;4.40;;
22963;SDS011;11648;49.306;6.934;2023-03-15T03:56:06;9.40;;;3.93;;
22963;SDS011;11648;49.306;6.934;2023-03-15T03:58:34;13.07;;;4.43;;
22963;SDS011;11648;49.306;6.934;2023-03-15T04:01:12;12.53;;;4.00;;
22963;SDS011;11648;49.306;6.934;2023-03-15T04:03:39;9.30;;;4.33;;
22963;SDS011;11648;49.306;6.934;2023-03-15T04:06:12;12.93;;;4.10;;
22963;SDS011;11648;49.306;6.934;2023-03-15T04:08:43;10.90;;;4.13;;
22963;SDS011;11648;49.306;6.934;2023-03-15T04:11:14;11.77;;;4.67;;
22963;SDS011;11648;49.306;6.934;2023-03-15T04:13:45;10.53;;;4.40;;
22963;SDS011;11648;49.306;6.934;2023-03-15T04:16:12;15.20;;;4.47;;
22963;SDS011;11648;49.306;6.934;2023-03-15T04:18:57;10.17;;;3.67;;
22963;SDS011;11648;49.306;6.934;2023-03-15T04:21:27;10.77;;;4.03;;
22963;SDS011;11648;49.306;6.934;2023-03-15T04:24:06;12.50;;;4.00;;
22963;SDS011;11648;49.306;6.934;2023-03-15T04:26:47;13.40;;;4.27;;
22963;SDS011;11648;49.306;6.934;2023-03-15T04:29:30;14.33;;;4.30;;
22963;SDS011;11648;49.306;6.934;2023-03-15T04:32:11;11.00;;;4.10;;
22963;SDS011;11648;49.306;6.934;2023-03-15T04:34:54;9.20;;;3.87;;
22963;SDS011;11648;49.306;6.934;2023-03-15T04:37:36;9.47;;;3.87;;
22963;SDS011;11648;49.306;6.934;2023-03-15T04:40:20;10.13;;;3.43;;
22963;SDS011;11648;49.306;6.934;2023-03-15T04:43:09;9.97;;;3.67;;
22963;SDS011;11648;49.306;6.934;2023-03-15T04:45:59;13.27;;;4.10;;
22963;SDS011;11648;49.306;6.934;2023-03-15T04:48:39;9.17;;;3.60;;
22963;SDS011;11648;49.306;6.934;2023-03-15T04:51:23;7.97;;;4.07;;
22963;SDS011;11648;49.306;6.934;2023-03-15T04:54:22;10.07;;;4.53;;
22963;SDS011;11648;49.306;6.934;2023-03-15T04:57:22;10.97;;;4.50;;
22963;SDS011;11648;49.306;6.934;2023-03-15T05:00:08;10.87;;;4.97;;
22963;SDS011;11648;49.306;6.934;2023-03-15T05:02:55;9.80;;;4.83;;
22963;SDS011;11648;49.306;6.934;2023-03-15T05:05:46;10.60;;;4.60;;
22963;SDS011;11648;49.306;6.934;2023-03-15T05:08:27;10.40;;;4.77;;
22963;SDS011;11648;49.306;6.934;2023-03-15T05:11:13;11.83;;;5.27;;
22963;SDS011;11648;49.306;6.934;2023-03-15T05:13:49;11.07;;;5.30;;
22963;SDS011;11648;49.306;6.934;2023-03-15T05:16:31;11.57;;;5.47;;
22963;SDS011;11648;49.306;6.934;2023-03-15T05:19:18;12.80;;;5.57;;
22963;SDS011;11648;49.306;6.934;2023-03-15T05:22:06;15.17;;;5.50;;
22963;SDS011;11648;49.306;6.934;2023-03-15T05:24:46;12.80;;;6.13;;
22963;SDS011;11648;49.306;6.934;2023-03-15T05:27:47;12.40;;;5.50;;
22963;SDS011;11648;49.306;6.934;2023-03-15T05:30:33;11.77;;;5.30;;
22963;SDS011;11648;49.306;6.934;2023-03-15T05:33:00;10.87;;;5.73;;
22963;SDS011;11648;49.306;6.934;2023-03-15T05:35:30;12.03;;;5.90;;
22963;SDS011;11648;49.306;6.934;2023-03-15T05:38:29;10.40;;;5.23;;
22963;SDS011;11648;49.306;6.934;2023-03-15T05:41:02;11.50;;;5.70;;
22963;SDS011;11648;49.306;6.934;2023-03-15T05:43:55;12.93;;;5.97;;
22963;SDS011;11648;49.306;6.934;2023-03-15T05:46:38;12.40;;;5.50;;
22963;SDS011;11648;49.306;6.934;2023-03-15T05:49:25;12.63;;;5.50;;
22963;SDS011;11648;49.306;6.934;2023-03-15T05:52:11;11.97;;;5.60;;
22963;SDS011;11648;49.306;6.934;2023-03-15T05:54:57;12.27;;;6.60;;
22963;SDS011;11648;49.306;6.934;2023-03-15T05:57:42;12.93;;;6.80;;
22963;SDS011;11648;49.306;6.934;2023-03-15T06:00:20;13.60;;;6.97;;
22963;SDS011;11648;49.306;6.934;2023-03-15T06:02:50;16.20;;;7.70;;
22963;SDS011;11648;49.306;6.934;2023-03-15T06:05:43;16.10;;;7.37;;
22963;SDS011;11648;49.306;6.934;2023-03-15T06:08:15;19.63;;;7.37;;
22963;SDS011;11648;49.306;6.934;2023-03-15T06:10:44;12.63;;;6.97;;
22963;SDS011;11648;49.306;6.934;2023-03-15T06:13:11;15.63;;;8.07;;
22963;SDS011;11648;49.306;6.934;2023-03-15T06:15:39;13.57;;;7.17;;
22963;SDS011;11648;49.306;6.934;2023-03-15T06:18:07;13.97;;;7.30;;
22963;SDS011;11648;49.306;6.934;2023-03-15T06:20:34;14.47;;;7.37;;
22963;SDS011;11648;49.306;6.934;2023-03-15T06:23:06;11.53;;;6.90;;
22963;SDS011;11648;49.306;6.934;2023-03-15T06:25:43;12.63;;;6.83;;
22963;SDS011;11648;49.306;6.934;2023-03-15T06:28:11;12.70;;;7.20;;
22963;SDS011;11648;49.306;6.934;2023-03-15T06:30:42;14.37;;;7.17;;
22963;SDS011;11648;49.306;6.934;2023-03-15T06:33:10;12.67;;;6.93;;
22963;SDS011;11648;49.306;6.934;2023-03-15T06:35:37;15.13;;;7.17;;
22963;SDS011;11648;49.306;6.934;2023-03-15T06:38:04;13.17;;;6.60;;
22963;SDS011;11648;49.306;6.934;2023-03-15T06:40:31;11.43;;;6.17;;
22963;SDS011;11648;49.306;6.934;2023-03-15T06:42:58;14.30;;;6.00;;
22963;SDS011;11648;49.306;6.934;2023-03-15T06:45:29;12.10;;;6.13;;
22963;SDS011;11648;49.306;6.934;2023-03-15T06:47:57;11.47;;;6.07;;
22963;SDS011;11648;49.306;6.934;2023-03-15T06:50:24;9.73;;;5.80;;
22963;SDS011;11648;49.306;6.934;2023-03-15T06:52:54;12.43;;;5.70;;
22963;SDS011;11648;49.306;6.934;2023-03-15T06:55:23;15.63;;;6.87;;
22963;SDS011;11648;49.306;6.934;2023-03-15T06:57:49;11.40;;;6.13;;
22963;SDS011;11648;49.306;6.934;2023-03-15T07:00:16;12.67;;;6.20;;
22963;SDS011;11648;49.306;6.934;2023-03-15T07:02:43;14.43;;;6.13;;
22963;SDS011;11648;49.306;6.934;2023-03-15T07:05:10;13.33;;;6.83;;
22963;SDS011;11648;49.306;6.934;2023-03-15T07:07:37;10.77;;;5.87;;
22963;SDS011;11648;49.306;6.934;2023-03-15T07:10:03;10.87;;;6.20;;
22963;SDS011;11648;49.306;6.934;2023-03-15T07:12:30;11.20;;;6.37;;
22963;SDS011;11648;49.306;6.934;2023-03-15T07:14:57;11.30;;;6.30;;
22963;SDS011;11648;49.306;6.934;2023-03-15T07:17:24;15.00;;;6.30;;
22963;SDS011;11648;49.306;6.934;2023-03-15T07:19:50;11.37;;;6.30;;
22963;SDS011;11648;49.306;6.934;2023-03-15T07:22:22;11.77;;;6.33;;
22963;SDS011;11648;49.306;6.934;2023-03-15T07:24:49;11.37;;;5.97;;
22963;SDS011;11648;49.306;6.934;2023-03-15T07:27:16;11.30;;;5.93;;
22963;SDS011;11648;49.306;6.934;2023-03-15T07:29:45;11.13;;;5.93;;
22963;SDS011;11648;49.306;6.934;2023-03-15T07:32:11;11.80;;;5.73;;
22963;SDS011;11648;49.306;6.934;2023-03-15T07:34:38;11.33;;;6.40;;
22963;SDS011;11648;49.306;6.934;2023-03-15T07:37:05;11.13;;;6.17;;
22963;SDS011;11648;49.306;6.934;2023-03-15T07:39:31;13.80;;;5.73;;
22963;SDS011;11648;49.306;6.934;2023-03-15T07:41:58;8.47;;;5.60;;
22963;SDS011;11648;49.306;6.934;2023-03-15T07:44:30;12.53;;;6.13;;
22963;SDS011;11648;49.306;6.934;2023-03-15T07:46:57;11.07;;;5.47;;
22963;SDS011;11648;49.306;6.934;2023-03-15T07:49:24;9.33;;;5.50;;
22963;SDS011;11648;49.306;6.934;2023-03-15T07:51:51;9.30;;;5.30;;
22963;SDS011;11648;49.306;6.934;2023-03-15T07:54:18;8.53;;;4.50;;
22963;SDS011;11648;49.306;6.934;2023-03-15T07:56:45;11.40;;;4.80;;
22963;SDS011;11648;49.306;6.934;2023-03-15T07:59:12;13.30;;;5.20;;
22963;SDS011;11648;49.306;6.934;2023-03-15T08:01:39;10.23;;;4.53;;
22963;SDS011;11648;49.306;6.934;2023-03-15T08:04:05;11.20;;;4.93;;
22963;SDS011;11648;49.306;6.934;2023-03-15T08:06:32;12.53;;;5.10;;
22963;SDS011;11648;49.306;6.934;2023-03-15T08:08:59;11.73;;;4.10;;
22963;SDS011;11648;49.306;6.934;2023-03-15T08:11:26;9.07;;;3.70;;
22963;SDS011;11648;49.306;6.934;2023-03-15T08:13:53;8.53;;;4.10;;
22963;SDS011;11648;49.306;6.934;2023-03-15T08:16:20;9.90;;;4.63;;
22963;SDS011;11648;49.306;6.934;2023-03-15T08:18:46;6.93;;;3.60;;
22963;SDS011;11648;49.306;6.934;2023-03-15T08:21:13;9.27;;;4.30;;
22963;SDS011;11648;49.306;6.934;2023-03-15T08:23:40;11.27;;;4.60;;
22963;SDS011;11648;49.306;6.934;2023-03-15T08:26:07;10.17;;;4.20;;
22963;SDS011;11648;49.306;6.934;2023-03-15T08:28:34;11.00;;;4.80;;
22963;SDS011;11648;49.306;6.934;2023-03-15T08:31:04;8.37;;;4.33;;
22963;SDS011;11648;49.306;6.934;2023-03-15T08:33:32;7.77;;;4.37;;
22963;SDS011;11648;49.306;6.934;2023-03-15T08:35:58;8.07;;;3.93;;
22963;SDS011;11648;49.306;6.934;2023-03-15T08:38:25;10.23;;;4.40;;
22963;SDS011;11648;49.306;6.934;2023-03-15T08:40:55;11.70;;;4.30;;
22963;SDS011;11648;49.306;6.934;2023-03-15T08:43:23;9.07;;;4.10;;
22963;SDS011;11648;49.306;6.934;2023-03-15T08:45:50;7.70;;;3.87;;
22963;SDS011;11648;49.306;6.934;2023-03-15T08:48:26;8.30;;;3.73;;
22963;SDS011;11648;49.306;6.934;2023-03-15T08:50:53;6.87;;;3.73;;
22963;SDS011;11648;49.306;6.934;2023-03-15T08:53:19;8.70;;;3.57;;
22963;SDS011;11648;49.306;6.934;2023-03-15T08:55:46;8.13;;;3.43;;
22963;SDS011;11648;49.306;6.934;2023-03-15T08:58:14;6.57;;;3.03;;
22963;SDS011;11648;49.306;6.934;2023-03-15T09:00:41;6.33;;;2.70;;
22963;SDS011;11648;49.306;6.934;2023-03-15T09:03:08;7.07;;;3.40;;
22963;SDS011;11648;49.306;6.934;2023-03-15T09:05:34;7.90;;;3.40;;
22963;SDS011;11648;49.306;6.934;2023-03-15T09:08:02;6.93;;;3.40;;
22963;SDS011;11648;49.306;6.934;2023-03-15T09:10:29;7.87;;;3.50;;
22963;SDS011;11648;49.306;6.934;2023-03-15T09:12:56;8.13;;;3.37;;
22963;SDS011;11648;49.306;6.934;2023-03-15T09:15:23;9.10;;;3.30;;
22963;SDS011;11648;49.306;6.934;2023-03-15T09:17:50;6.90;;;3.50;;
22963;SDS011;11648;49.306;6.934;2023-03-15T09:20:17;7.07;;;3.43;;
22963;SDS011;11648;49.306;6.934;2023-03-15T09:22:51;7.23;;;3.50;;
22963;SDS011;11648;49.306;6.934;2023-03-15T09:25:19;8.33;;;3.43;;
22963;SDS011;11648;49.306;6.934;2023-03-15T09:27:46;6.40;;;3.43;;
22963;SDS011;11648;49.306;6.934;2023-03-15T09:30:13;6.90;;;3.50;;
22963;SDS011;11648;49.306;6.934;2023-03-15T09:32:40;6.70;;;3.30;;
22963;SDS011;11648;49.306;6.934;2023-03-15T09:35:09;8.27;;;3.80;;
22963;SDS011;11648;49.306;6.934;2023-03-15T09:37:39;6.83;;;3.50;;
22963;SDS011;11648;49.306;6.934;2023-03-15T09:51:40;7.03;;;4.13;;
22963;SDS011;11648;49.306;6.934;2023-03-15T09:54:21;7.57;;;4.10;;
22963;SDS011;11648;49.306;6.934;2023-03-15T09:59:58;8.27;;;4.03;;
22963;SDS011;11648;49.306;6.934;2023-03-15T10:02:34;8.87;;;4.17;;
22963;SDS011;11648;49.306;6.934;2023-03-15T10:05:37;9.33;;;4.40;;
22963;SDS011;11648;49.306;6.934;2023-03-15T10:08:08;6.23;;;4.00;;
22963;SDS011;11648;49.306;6.934;2023-03-15T10:10:39;7.83;;;3.57;;
22963;SDS011;11648;49.306;6.934;2023-03-15T10:21:10;5.67;;;3.20;;
22963;SDS011;11648;49.306;6.934;2023-03-15T10:23:45;6.10;;;3.10;;
22963;SDS011;11648;49.306;6.934;2023-03-15T10:26:18;8.43;;;3.00;;
22963;SDS011;11648;49.306;6.934;2023-03-15T10:28:50;6.07;;;3.47;;
22963;SDS011;11648;49.306;6.934;2023-03-15T10:31:20;5.73;;;2.83;;
22963;SDS011;11648;49.306;6.934;2023-03-15T10:34:09;6.37;;;3.03;;
22963;SDS011;11648;49.306;6.934;2023-03-15T10:36:43;4.97;;;2.90;;
22963;SDS011;11648;49.306;6.934;2023-03-15T10:39:11;5.07;;;3.40;;
22963;SDS011;11648;49.306;6.934;2023-03-15T10:44:09;6.07;;;2.80;;
22963;SDS011;11648;49.306;6.934;2023-03-15T10:46:38;3.63;;;2.23;;
22963;SDS011;11648;49.306;6.934;2023-03-15T10:51:44;5.20;;;2.70;;
22963;SDS011;11648;49.306;6.934;2023-03-15T10:54:17;4.03;;;2.70;;
22963;SDS011;11648;49.306;6.934;2023-03-15T10:56:49;4.77;;;2.70;;
22963;SDS011;11648;49.306;6.934;2023-03-15T10:59:22;4.80;;;2.50;;
22963;SDS011;11648;49.306;6.934;2023-03-15T11:01:51;4.17;;;2.40;;
22963;SDS011;11648;49.306;6.934;2023-03-15T11:04:32;4.00;;;2.40;;
22963;SDS011;11648;49.306;6.934;2023-03-15T11:07:00;4.70;;;2.57;;
22963;SDS011;11648;49.306;6.934;2023-03-15T11:12:14;5.47;;;2.90;;
22963;SDS011;11648;49.306;6.934;2023-03-15T11:14:52;4.33;;;2.70;;
22963;SDS011;11648;49.306;6.934;2023-03-15T11:17:28;5.87;;;3.00;;
22963;SDS011;11648;49.306;6.934;2023-03-15T11:19:58;4.33;;;2.77;;
22963;SDS011;11648;49.306;6.934;2023-03-15T11:22:38;4.03;;;2.60;;
22963;SDS011;11648;49.306;6.934;2023-03-15T11:25:15;5.03;;;2.77;;
22963;SDS011;11648;49.306;6.934;2023-03-15T11:27:42;3.30;;;2.43;;
22963;SDS011;11648;49.306;6.934;2023-03-15T11:30:16;4.37;;;2.80;;
22963;SDS011;11648;49.306;6.934;2023-03-15T11:32:44;4.10;;;2.80;;
22963;SDS011;11648;49.306;6.934;2023-03-15T11:35:13;4.17;;;2.70;;
22963;SDS011;11648;49.306;6.934;2023-03-15T11:37:45;3.83;;;2.73;;
22963;SDS011;11648;49.306;6.934;2023-03-15T11:43:05;4.57;;;3.00;;
22963;SDS011;11648;49.306;6.934;2023-03-15T11:45:44;3.87;;;2.70;;
22963;SDS011;11648;49.306;6.934;2023-03-15T11:48:37;5.27;;;2.80;;
22963;SDS011;11648;49.306;6.934;2023-03-15T11:51:09;3.17;;;2.27;;
22963;SDS011;11648;49.306;6.934;2023-03-15T11:53:40;4.20;;;2.37;;
22963;SDS011;11648;49.306;6.934;2023-03-15T11:56:18;5.07;;;2.40;;
22963;SDS011;11648;49.306;6.934;2023-03-15T12:01:34;3.50;;;2.30;;
22963;SDS011;11648;49.306;6.934;2023-03-15T12:06:53;2.83;;;2.00;;
22963;SDS011;11648;49.306;6.934;2023-03-15T12:12:02;3.87;;;2.07;;
22963;SDS011;11648;49.306;6.934;2023-03-15T12:17:35;3.73;;;1.90;;
22963;SDS011;11648;49.306;6.934;2023-03-15T12:23:03;2.90;;;1.70;;
22963;SDS011;11648;49.306;6.934;2023-03-15T12:28:22;4.13;;;1.90;;
22963;SDS011;11648;49.306;6.934;2023-03-15T12:30:54;2.03;;;1.40;;
22963;SDS011;11648;49.306;6.934;2023-03-15T12:33:24;3.23;;;1.80;;
22963;SDS011;11648;49.306;6.934;2023-03-15T12:36:00;4.27;;;2.07;;
22963;SDS011;11648;49.306;6.934;2023-03-15T12:38:34;2.20;;;1.43;;
22963;SDS011;11648;49.306;6.934;2023-03-15T12:41:07;2.87;;;1.70;;
22963;SDS011;11648;49.306;6.934;2023-03-15T12:44:04;4.27;;;1.93;;
22963;SDS011;11648;49.306;6.934;2023-03-15T12:51:56;3.67;;;2.20;;
22963;SDS011;11648;49.306;6.934;2023-03-15T12:54:29;3.73;;;2.30;;
22963;SDS011;11648;49.306;6.934;2023-03-15T12:57:02;4.37;;;2.37;;
22963;SDS011;11648;49.306;6.934;2023-03-15T12:59:31;5.13;;;2.73;;
22963;SDS011;11648;49.306;6.934;2023-03-15T13:02:14;4.10;;;2.57;;
22963;SDS011;11648;49.306;6.934;2023-03-15T13:07:52;3.90;;;2.27;;
22963;SDS011;11648;49.306;6.934;2023-03-15T13:18:41;4.47;;;2.40;;
22963;SDS011;11648;49.306;6.934;2023-03-15T13:21:33;3.33;;;2.30;;
22963;SDS011;11648;49.306;6.934;2023-03-15T13:24:02;3.67;;;2.20;;
22963;SDS011;11648;49.306;6.934;2023-03-15T13:27:12;4.43;;;2.40;;
22963;SDS011;11648;49.306;6.934;2023-03-15T13:29:48;4.50;;;2.40;;
22963;SDS011;11648;49.306;6.934;2023-03-15T13:32:16;2.93;;;2.20;;
22963;SDS011;11648;49.306;6.934;2023-03-15T13:34:45;4.43;;;2.10;;
22963;SDS011;11648;49.306;6.934;2023-03-15T13:37:14;3.87;;;2.00;;
22963;SDS011;11648;49.306;6.934;2023-03-15T13:40:02;2.90;;;1.77;;
22963;SDS011;11648;49.306;6.934;2023-03-15T13:42:37;3.67;;;2.33;;
22963;SDS011;11648;49.306;6.934;2023-03-15T13:45:09;4.03;;;2.70;;
22963;SDS011;11648;49.306;6.934;2023-03-15T13:47:41;4.70;;;2.83;;
22963;SDS011;11648;49.306;6.934;2023-03-15T13:50:15;4.30;;;2.17;;
22963;SDS011;11648;49.306;6.934;2023-03-15T13:52:45;3.40;;;2.00;;
22963;SDS011;11648;49.306;6.934;2023-03-15T13:55:14;3.27;;;2.20;;
22963;SDS011;11648;49.306;6.934;2023-03-15T13:57:45;3.50;;;2.07;;
22963;SDS011;11648;49.306;6.934;2023-03-15T14:00:12;3.90;;;2.17;;
22963;SDS011;11648;49.306;6.934;2023-03-15T14:05:12;4.77;;;2.33;;
22963;SDS011;11648;49.306;6.934;2023-03-15T14:07:42;6.10;;;3.03;;
22963;SDS011;11648;49.306;6.934;2023-03-15T14:12:42;3.53;;;2.23;;
22963;SDS011;11648;49.306;6.934;2023-03-15T14:15:21;3.50;;;2.17;;
22963;SDS011;11648;49.306;6.934;2023-03-15T14:20:37;3.50;;;1.60;;
22963;SDS011;11648;49.306;6.934;2023-03-15T14:23:17;3.27;;;1.70;;
22963;SDS011;11648;49.306;6.934;2023-03-15T14:25:50;4.30;;;1.70;;
22963;SDS011;11648;49.306;6.934;2023-03-15T14:28:19;6.17;;;3.07;;
22963;SDS011;11648;49.306;6.934;2023-03-15T14:30:51;6.40;;;2.93;;
22963;SDS011;11648;49.306;6.934;2023-03-15T14:33:23;4.00;;;2.03;;
22963;SDS011;11648;49.306;6.934;2023-03-15T14:36:02;3.80;;;1.70;;
22963;SDS011;11648;49.306;6.934;2023-03-15T14:38:35;3.93;;;1.90;;
22963;SDS011;11648;49.306;6.934;2023-03-15T14:41:17;3.80;;;2.33;;
22963;SDS011;11648;49.306;6.934;2023-03-15T14:43:50;4.27;;;1.80;;
22963;SDS011;11648;49.306;6.934;2023-03-15T14:46:17;3.10;;;1.67;;
22963;SDS011;11648;49.306;6.934;2023-03-15T14:48:44;3.53;;;1.50;;
22963;SDS011;11648;49.306;6.934;2023-03-15T14:51:13;3.03;;;1.60;;
22963;SDS011;11648;49.306;6.934;2023-03-15T14:53:43;2.93;;;1.60;;
22963;SDS011;11648;49.306;6.934;2023-03-15T14:56:11;3.20;;;1.70;;
22963;SDS011;11648;49.306;6.934;2023-03-15T14:58:39;3.77;;;1.67;;
22963;SDS011;11648;49.306;6.934;2023-03-15T15:01:08;3.67;;;1.80;;
22963;SDS011;11648;49.306;6.934;2023-03-15T15:03:42;3.93;;;1.80;;
22963;SDS011;11648;49.306;6.934;2023-03-15T15:06:12;3.00;;;1.73;;
22963;SDS011;11648;49.306;6.934;2023-03-15T15:08:45;3.23;;;1.67;;
22963;SDS011;11648;49.306;6.934;2023-03-15T15:11:13;4.50;;;1.73;;
22963;SDS011;11648;49.306;6.934;2023-03-15T15:13:41;3.73;;;1.80;;
22963;SDS011;11648;49.306;6.934;2023-03-15T15:16:08;4.03;;;1.93;;
22963;SDS011;11648;49.306;6.934;2023-03-15T15:18:35;3.33;;;1.80;;
22963;SDS011;11648;49.306;6.934;2023-03-15T15:21:45;3.30;;;1.87;;
22963;SDS011;11648;49.306;6.934;2023-03-15T15:23:58;4.07;;;2.27;;
22963;SDS011;11648;49.306;6.934;2023-03-15T15:26:28;5.63;;;1.60;;
22963;SDS011;11648;49.306;6.934;2023-03-15T15:28:57;3.07;;;1.67;;
22963;SDS011;11648;49.306;6.934;2023-03-15T15:31:25;2.77;;;1.60;;
22963;SDS011;11648;49.306;6.934;2023-03-15T15:33:54;4.40;;;2.00;;
22963;SDS011;11648;49.306;6.934;2023-03-15T15:36:29;2.47;;;1.40;;
22963;SDS011;11648;49.306;6.934;2023-03-15T15:38:58;2.70;;;1.43;;
22963;SDS011;11648;49.306;6.934;2023-03-15T15:41:32;4.20;;;1.60;;
22963;SDS011;11648;49.306;6.934;2023-03-15T15:43:58;3.43;;;1.67;;
22963;SDS011;11648;49.306;6.934;2023-03-15T15:46:25;3.40;;;1.90;;
22963;SDS011;11648;49.306;6.934;2023-03-15T15:48:53;3.53;;;1.63;;
22963;SDS011;11648;49.306;6.934;2023-03-15T15:53:52;2.47;;;1.53;;
22963;SDS011;11648;49.306;6.934;2023-03-15T15:56:36;4.30;;;1.47;;
22963;SDS011;11648;49.306;6.934;2023-03-15T15:59:11;2.40;;;1.53;;
22963;SDS011;11648;49.306;6.934;2023-03-15T16:01:43;2.67;;;1.40;;
22963;SDS011;11648;49.306;6.934;2023-03-15T16:04:26;2.30;;;1.30;;
22963;SDS011;11648;49.306;6.934;2023-03-15T16:06:54;2.83;;;1.30;;
22963;SDS011;11648;49.306;6.934;2023-03-15T16:09:24;2.83;;;1.70;;
22963;SDS011;11648;49.306;6.934;2023-03-15T16:11:53;5.07;;;1.40;;
22963;SDS011;11648;49.306;6.934;2023-03-15T16:14:20;3.13;;;1.43;;
22963;SDS011;11648;49.306;6.934;2023-03-15T16:16:47;2.03;;;1.50;;
22963;SDS011;11648;49.306;6.934;2023-03-15T16:19:13;2.70;;;1.53;;
22963;SDS011;11648;49.306;6.934;2023-03-15T16:21:44;2.80;;;1.80;;
22963;SDS011;11648;49.306;6.934;2023-03-15T16:24:16;2.40;;;1.50;;
22963;SDS011;11648;49.306;6.934;2023-03-15T16:26:46;3.10;;;1.60;;
22963;SDS011;11648;49.306;6.934;2023-03-15T16:31:46;3.10;;;1.50;;
22963;SDS011;11648;49.306;6.934;2023-03-15T16:34:14;4.60;;;1.50;;
22963;SDS011;11648;49.306;6.934;2023-03-15T16:36:42;4.10;;;1.87;;
22963;SDS011;11648;49.306;6.934;2023-03-15T16:39:15;4.07;;;1.90;;
22963;SDS011;11648;49.306;6.934;2023-03-15T16:41:42;2.93;;;1.90;;